sensor_id;sensor_type;location;lat;lon;timestamp;P1;durP1;ratioP1;P2;durP2;ratioP2
13439;SDS011;6792;57.698;11.946;2022-12-29T00:01:44;0.87;;;0.83;;
13439;SDS011;6792;57.698;11.946;2022-12-29T00:04:13;1.23;;;0.80;;
13439;SDS011;6792;57.698;11.946;2022-12-29T00:06:43;1.13;;;0.83;;
13439;SDS011;6792;57.698;11.946;2022-12-29T00:09:12;2.43;;;0.90;;
13439;SDS011;6792;57.698;11.946;2022-12-29T00:11:43;1.13;;;0.77;;
13439;SDS011;6792;57.698;11.946;2022-12-29T00:14:12;2.60;;;1.13;;
13439;SDS011;6792;57.698;11.946;2022-12-29T00:16:59;1.70;;;1.00;;
13439;SDS011;6792;57.698;11.946;2022-12-29T00:19:29;1.37;;;1.10;;
13439;SDS011;6792;57.698;11.946;2022-12-29T00:22:16;1.17;;;0.60;;
13439;SDS011;6792;57.698;11.946;2022-12-29T00:25:04;0.70;;;0.70;;
13439;SDS011;6792;57.698;11.946;2022-12-29T00:27:52;0.60;;;0.60;;
13439;SDS011;6792;57.698;11.946;2022-12-29T00:30:39;1.53;;;0.70;;
13439;SDS011;6792;57.698;11.946;2022-12-29T00:33:26;0.60;;;0.60;;
13439;SDS011;6792;57.698;11.946;2022-12-29T00:36:16;0.70;;;0.63;;
13439;SDS011;6792;57.698;11.946;2022-12-29T00:38:49;0.97;;;0.70;;
13439;SDS011;6792;57.698;11.946;2022-12-29T00:41:51;1.30;;;0.80;;
13439;SDS011;6792;57.698;11.946;2022-12-29T00:44:38;0.90;;;0.60;;
13439;SDS011;6792;57.698;11.946;2022-12-29T00:47:07;2.47;;;0.77;;
13439;SDS011;6792;57.698;11.946;2022-12-29T00:49:36;0.47;;;0.47;;
13439;SDS011;6792;57.698;11.946;2022-12-29T00:52:06;0.93;;;0.50;;
13439;SDS011;6792;57.698;11.946;2022-12-29T00:54:37;0.50;;;0.43;;
13439;SDS011;6792;57.698;11.946;2022-12-29T00:57:07;0.30;;;0.30;;
13439;SDS011;6792;57.698;11.946;2022-12-29T00:59:37;1.33;;;0.40;;
13439;SDS011;6792;57.698;11.946;2022-12-29T01:02:07;0.47;;;0.40;;
13439;SDS011;6792;57.698;11.946;2022-12-29T01:04:36;0.40;;;0.40;;
13439;SDS011;6792;57.698;11.946;2022-12-29T01:07:05;0.63;;;0.30;;
13439;SDS011;6792;57.698;11.946;2022-12-29T01:09:34;0.40;;;0.40;;
13439;SDS011;6792;57.698;11.946;2022-12-29T01:12:21;0.50;;;0.30;;
13439;SDS011;6792;57.698;11.946;2022-12-29T01:15:08;0.43;;;0.43;;
13439;SDS011;6792;57.698;11.946;2022-12-29T01:17:39;0.87;;;0.70;;
13439;SDS011;6792;57.698;11.946;2022-12-29T01:20:09;1.73;;;0.80;;
13439;SDS011;6792;57.698;11.946;2022-12-29T01:22:39;0.67;;;0.67;;
13439;SDS011;6792;57.698;11.946;2022-12-29T01:25:09;1.20;;;0.90;;
13439;SDS011;6792;57.698;11.946;2022-12-29T01:27:38;1.93;;;1.13;;
13439;SDS011;6792;57.698;11.946;2022-12-29T01:30:08;1.20;;;1.10;;
13439;SDS011;6792;57.698;11.946;2022-12-29T01:32:38;2.43;;;1.17;;
13439;SDS011;6792;57.698;11.946;2022-12-29T01:35:07;1.87;;;1.57;;
13439;SDS011;6792;57.698;11.946;2022-12-29T01:37:37;4.87;;;1.77;;
13439;SDS011;6792;57.698;11.946;2022-12-29T01:40:06;2.57;;;1.97;;
13439;SDS011;6792;57.698;11.946;2022-12-29T01:42:40;4.33;;;1.90;;
13439;SDS011;6792;57.698;11.946;2022-12-29T01:45:10;2.83;;;2.10;;
13439;SDS011;6792;57.698;11.946;2022-12-29T01:47:41;4.27;;;2.10;;
13439;SDS011;6792;57.698;11.946;2022-12-29T01:50:12;8.63;;;2.70;;
13439;SDS011;6792;57.698;11.946;2022-12-29T01:52:46;3.97;;;2.63;;
13439;SDS011;6792;57.698;11.946;2022-12-29T01:55:16;5.63;;;2.20;;
13439;SDS011;6792;57.698;11.946;2022-12-29T01:57:47;3.60;;;1.90;;
13439;SDS011;6792;57.698;11.946;2022-12-29T02:00:18;3.73;;;2.40;;
13439;SDS011;6792;57.698;11.946;2022-12-29T02:02:49;2.43;;;1.80;;
13439;SDS011;6792;57.698;11.946;2022-12-29T02:05:21;2.00;;;1.30;;
13439;SDS011;6792;57.698;11.946;2022-12-29T02:07:53;2.37;;;1.50;;
13439;SDS011;6792;57.698;11.946;2022-12-29T02:10:23;1.83;;;1.47;;
13439;SDS011;6792;57.698;11.946;2022-12-29T02:12:54;1.67;;;1.43;;
13439;SDS011;6792;57.698;11.946;2022-12-29T02:15:25;1.43;;;1.33;;
13439;SDS011;6792;57.698;11.946;2022-12-29T02:18:01;1.67;;;1.40;;
13439;SDS011;6792;57.698;11.946;2022-12-29T02:20:46;2.17;;;1.53;;
13439;SDS011;6792;57.698;11.946;2022-12-29T02:23:48;1.47;;;1.20;;
13439;SDS011;6792;57.698;11.946;2022-12-29T02:29:46;2.07;;;1.33;;
13439;SDS011;6792;57.698;11.946;2022-12-29T02:32:35;1.47;;;1.10;;
13439;SDS011;6792;57.698;11.946;2022-12-29T02:35:08;2.33;;;1.30;;
13439;SDS011;6792;57.698;11.946;2022-12-29T02:37:41;4.00;;;1.20;;
13439;SDS011;6792;57.698;11.946;2022-12-29T02:40:16;1.90;;;1.07;;
13439;SDS011;6792;57.698;11.946;2022-12-29T02:42:48;1.70;;;1.10;;
13439;SDS011;6792;57.698;11.946;2022-12-29T02:45:20;2.27;;;0.97;;
13439;SDS011;6792;57.698;11.946;2022-12-29T02:47:53;1.57;;;0.93;;
13439;SDS011;6792;57.698;11.946;2022-12-29T02:50:25;0.70;;;0.50;;
13439;SDS011;6792;57.698;11.946;2022-12-29T02:52:58;1.03;;;0.63;;
13439;SDS011;6792;57.698;11.946;2022-12-29T02:55:29;0.60;;;0.43;;
13439;SDS011;6792;57.698;11.946;2022-12-29T03:01:02;0.57;;;0.57;;
13439;SDS011;6792;57.698;11.946;2022-12-29T03:03:38;0.60;;;0.60;;
13439;SDS011;6792;57.698;11.946;2022-12-29T03:06:18;0.93;;;0.37;;
13439;SDS011;6792;57.698;11.946;2022-12-29T03:08:57;0.80;;;0.40;;
13439;SDS011;6792;57.698;11.946;2022-12-29T03:11:30;0.50;;;0.50;;
13439;SDS011;6792;57.698;11.946;2022-12-29T03:14:21;0.87;;;0.40;;
13439;SDS011;6792;57.698;11.946;2022-12-29T03:17:10;0.50;;;0.50;;
13439;SDS011;6792;57.698;11.946;2022-12-29T03:19:44;0.30;;;0.30;;
13439;SDS011;6792;57.698;11.946;2022-12-29T03:22:15;0.30;;;0.30;;
13439;SDS011;6792;57.698;11.946;2022-12-29T03:24:57;0.40;;;0.27;;
13439;SDS011;6792;57.698;11.946;2022-12-29T03:27:31;0.50;;;0.50;;
13439;SDS011;6792;57.698;11.946;2022-12-29T03:30:04;0.40;;;0.33;;
13439;SDS011;6792;57.698;11.946;2022-12-29T03:32:36;1.87;;;0.50;;
13439;SDS011;6792;57.698;11.946;2022-12-29T03:35:08;0.40;;;0.40;;
13439;SDS011;6792;57.698;11.946;2022-12-29T03:37:40;0.30;;;0.30;;
13439;SDS011;6792;57.698;11.946;2022-12-29T03:40:13;0.10;;;0.10;;
13439;SDS011;6792;57.698;11.946;2022-12-29T03:42:42;0.93;;;0.40;;
13439;SDS011;6792;57.698;11.946;2022-12-29T03:45:13;0.30;;;0.30;;
13439;SDS011;6792;57.698;11.946;2022-12-29T03:47:42;0.10;;;0.10;;
13439;SDS011;6792;57.698;11.946;2022-12-29T03:50:12;0.20;;;0.20;;
13439;SDS011;6792;57.698;11.946;2022-12-29T03:52:41;0.77;;;0.20;;
13439;SDS011;6792;57.698;11.946;2022-12-29T03:55:10;0.40;;;0.20;;
13439;SDS011;6792;57.698;11.946;2022-12-29T03:57:39;0.10;;;0.10;;
13439;SDS011;6792;57.698;11.946;2022-12-29T04:00:10;0.23;;;0.10;;
13439;SDS011;6792;57.698;11.946;2022-12-29T04:02:40;0.77;;;0.20;;
13439;SDS011;6792;57.698;11.946;2022-12-29T04:05:09;0.20;;;0.10;;
13439;SDS011;6792;57.698;11.946;2022-12-29T04:07:40;0.30;;;0.10;;
13439;SDS011;6792;57.698;11.946;2022-12-29T04:10:09;0.17;;;0.10;;
13439;SDS011;6792;57.698;11.946;2022-12-29T04:12:38;0.00;;;0.00;;
13439;SDS011;6792;57.698;11.946;2022-12-29T04:15:09;0.00;;;0.00;;
13439;SDS011;6792;57.698;11.946;2022-12-29T04:17:38;0.20;;;0.10;;
13439;SDS011;6792;57.698;11.946;2022-12-29T04:20:08;0.13;;;0.10;;
13439;SDS011;6792;57.698;11.946;2022-12-29T04:22:59;0.10;;;0.10;;
13439;SDS011;6792;57.698;11.946;2022-12-29T04:25:30;0.07;;;0.07;;
13439;SDS011;6792;57.698;11.946;2022-12-29T04:28:00;0.10;;;0.10;;
13439;SDS011;6792;57.698;11.946;2022-12-29T04:30:33;0.40;;;0.10;;
13439;SDS011;6792;57.698;11.946;2022-12-29T04:33:03;0.00;;;0.00;;
13439;SDS011;6792;57.698;11.946;2022-12-29T04:35:32;0.10;;;0.10;;
13439;SDS011;6792;57.698;11.946;2022-12-29T04:38:01;1.60;;;0.30;;
13439;SDS011;6792;57.698;11.946;2022-12-29T04:40:33;0.43;;;0.20;;
13439;SDS011;6792;57.698;11.946;2022-12-29T04:43:02;0.40;;;0.40;;
13439;SDS011;6792;57.698;11.946;2022-12-29T04:45:31;4.23;;;0.50;;
13439;SDS011;6792;57.698;11.946;2022-12-29T04:48:04;1.27;;;0.70;;
13439;SDS011;6792;57.698;11.946;2022-12-29T04:50:33;1.03;;;0.43;;
13439;SDS011;6792;57.698;11.946;2022-12-29T04:53:06;1.20;;;0.70;;
13439;SDS011;6792;57.698;11.946;2022-12-29T04:55:35;2.00;;;0.80;;
13439;SDS011;6792;57.698;11.946;2022-12-29T04:58:04;2.30;;;0.83;;
13439;SDS011;6792;57.698;11.946;2022-12-29T05:00:33;4.23;;;0.80;;
13439;SDS011;6792;57.698;11.946;2022-12-29T05:03:02;3.70;;;1.00;;
13439;SDS011;6792;57.698;11.946;2022-12-29T05:05:31;2.00;;;1.03;;
13439;SDS011;6792;57.698;11.946;2022-12-29T05:08:03;2.37;;;1.00;;
13439;SDS011;6792;57.698;11.946;2022-12-29T05:10:33;4.20;;;1.20;;
13439;SDS011;6792;57.698;11.946;2022-12-29T05:13:03;3.77;;;1.10;;
13439;SDS011;6792;57.698;11.946;2022-12-29T05:15:36;6.40;;;1.80;;
13439;SDS011;6792;57.698;11.946;2022-12-29T05:18:05;3.87;;;1.40;;
13439;SDS011;6792;57.698;11.946;2022-12-29T05:20:34;1.53;;;1.43;;
13439;SDS011;6792;57.698;11.946;2022-12-29T05:23:03;7.50;;;2.03;;
13439;SDS011;6792;57.698;11.946;2022-12-29T05:25:34;4.30;;;1.60;;
13439;SDS011;6792;57.698;11.946;2022-12-29T05:28:05;4.43;;;1.53;;
13439;SDS011;6792;57.698;11.946;2022-12-29T05:30:35;3.40;;;1.70;;
13439;SDS011;6792;57.698;11.946;2022-12-29T05:33:04;2.43;;;1.63;;
13439;SDS011;6792;57.698;11.946;2022-12-29T05:35:33;2.03;;;1.10;;
13439;SDS011;6792;57.698;11.946;2022-12-29T05:38:03;2.87;;;1.20;;
13439;SDS011;6792;57.698;11.946;2022-12-29T05:40:32;2.60;;;1.33;;
13439;SDS011;6792;57.698;11.946;2022-12-29T05:43:01;2.40;;;1.50;;
13439;SDS011;6792;57.698;11.946;2022-12-29T05:45:33;2.67;;;1.50;;
13439;SDS011;6792;57.698;11.946;2022-12-29T05:48:04;2.63;;;1.47;;
13439;SDS011;6792;57.698;11.946;2022-12-29T05:50:33;2.93;;;1.83;;
13439;SDS011;6792;57.698;11.946;2022-12-29T05:53:04;3.40;;;2.00;;
13439;SDS011;6792;57.698;11.946;2022-12-29T05:55:33;2.40;;;1.60;;
13439;SDS011;6792;57.698;11.946;2022-12-29T05:58:02;4.83;;;2.27;;
13439;SDS011;6792;57.698;11.946;2022-12-29T06:00:31;3.27;;;1.73;;
13439;SDS011;6792;57.698;11.946;2022-12-29T06:03:01;8.50;;;2.60;;
13439;SDS011;6792;57.698;11.946;2022-12-29T06:05:30;3.00;;;2.00;;
13439;SDS011;6792;57.698;11.946;2022-12-29T06:08:04;7.73;;;3.00;;
13439;SDS011;6792;57.698;11.946;2022-12-29T06:10:33;9.90;;;3.67;;
13439;SDS011;6792;57.698;11.946;2022-12-29T06:13:03;6.93;;;3.50;;
13439;SDS011;6792;57.698;11.946;2022-12-29T06:15:32;8.17;;;4.60;;
13439;SDS011;6792;57.698;11.946;2022-12-29T06:18:04;9.37;;;5.37;;
13439;SDS011;6792;57.698;11.946;2022-12-29T06:20:33;10.23;;;5.73;;
13439;SDS011;6792;57.698;11.946;2022-12-29T06:23:05;9.37;;;4.80;;
13439;SDS011;6792;57.698;11.946;2022-12-29T06:25:34;12.17;;;5.33;;
13439;SDS011;6792;57.698;11.946;2022-12-29T06:28:12;15.10;;;6.70;;
13439;SDS011;6792;57.698;11.946;2022-12-29T06:30:43;9.33;;;5.20;;
13439;SDS011;6792;57.698;11.946;2022-12-29T06:33:12;12.43;;;5.53;;
13439;SDS011;6792;57.698;11.946;2022-12-29T06:35:42;7.80;;;4.10;;
13439;SDS011;6792;57.698;11.946;2022-12-29T06:38:12;9.20;;;5.13;;
13439;SDS011;6792;57.698;11.946;2022-12-29T06:40:44;10.47;;;5.00;;
13439;SDS011;6792;57.698;11.946;2022-12-29T06:43:13;14.90;;;6.07;;
13439;SDS011;6792;57.698;11.946;2022-12-29T06:45:43;5.07;;;4.10;;
13439;SDS011;6792;57.698;11.946;2022-12-29T06:48:12;7.47;;;4.33;;
13439;SDS011;6792;57.698;11.946;2022-12-29T06:50:41;5.57;;;3.10;;
13439;SDS011;6792;57.698;11.946;2022-12-29T06:53:10;2.80;;;2.23;;
13439;SDS011;6792;57.698;11.946;2022-12-29T06:55:40;1.73;;;1.60;;
13439;SDS011;6792;57.698;11.946;2022-12-29T06:58:10;2.60;;;1.90;;
13439;SDS011;6792;57.698;11.946;2022-12-29T07:00:39;3.07;;;1.30;;
13439;SDS011;6792;57.698;11.946;2022-12-29T07:03:10;1.97;;;1.73;;
13439;SDS011;6792;57.698;11.946;2022-12-29T07:05:40;5.67;;;2.10;;
13439;SDS011;6792;57.698;11.946;2022-12-29T07:08:09;2.57;;;2.37;;
13439;SDS011;6792;57.698;11.946;2022-12-29T07:10:38;5.73;;;2.33;;
13439;SDS011;6792;57.698;11.946;2022-12-29T07:13:07;3.97;;;1.93;;
13439;SDS011;6792;57.698;11.946;2022-12-29T07:15:36;3.47;;;2.17;;
13439;SDS011;6792;57.698;11.946;2022-12-29T07:18:05;4.23;;;2.00;;
13439;SDS011;6792;57.698;11.946;2022-12-29T07:20:34;4.20;;;2.23;;
13439;SDS011;6792;57.698;11.946;2022-12-29T07:23:05;3.13;;;2.40;;
13439;SDS011;6792;57.698;11.946;2022-12-29T07:25:35;5.20;;;2.40;;
13439;SDS011;6792;57.698;11.946;2022-12-29T07:28:04;4.87;;;2.83;;
13439;SDS011;6792;57.698;11.946;2022-12-29T07:30:33;4.40;;;2.70;;
13439;SDS011;6792;57.698;11.946;2022-12-29T07:33:05;4.67;;;2.97;;
13439;SDS011;6792;57.698;11.946;2022-12-29T07:35:34;6.27;;;3.77;;
13439;SDS011;6792;57.698;11.946;2022-12-29T07:38:03;8.23;;;3.40;;
13439;SDS011;6792;57.698;11.946;2022-12-29T07:40:32;8.87;;;3.77;;
13439;SDS011;6792;57.698;11.946;2022-12-29T07:43:01;5.53;;;3.20;;
13439;SDS011;6792;57.698;11.946;2022-12-29T07:45:31;7.07;;;3.80;;
13439;SDS011;6792;57.698;11.946;2022-12-29T07:48:00;10.93;;;4.27;;
13439;SDS011;6792;57.698;11.946;2022-12-29T07:50:33;8.10;;;3.83;;
13439;SDS011;6792;57.698;11.946;2022-12-29T07:53:03;9.93;;;4.00;;
13439;SDS011;6792;57.698;11.946;2022-12-29T07:55:34;9.00;;;3.77;;
13439;SDS011;6792;57.698;11.946;2022-12-29T07:58:03;12.03;;;3.57;;
13439;SDS011;6792;57.698;11.946;2022-12-29T08:00:34;12.33;;;3.80;;
13439;SDS011;6792;57.698;11.946;2022-12-29T08:03:04;5.73;;;4.10;;
13439;SDS011;6792;57.698;11.946;2022-12-29T08:05:33;5.37;;;3.57;;
13439;SDS011;6792;57.698;11.946;2022-12-29T08:08:03;16.77;;;4.37;;
13439;SDS011;6792;57.698;11.946;2022-12-29T08:10:33;16.47;;;4.07;;
13439;SDS011;6792;57.698;11.946;2022-12-29T08:13:03;9.97;;;3.73;;
13439;SDS011;6792;57.698;11.946;2022-12-29T08:15:34;8.70;;;4.17;;
13439;SDS011;6792;57.698;11.946;2022-12-29T08:18:05;8.27;;;3.60;;
13439;SDS011;6792;57.698;11.946;2022-12-29T08:20:34;9.63;;;4.20;;
13439;SDS011;6792;57.698;11.946;2022-12-29T08:23:03;14.17;;;4.83;;
13439;SDS011;6792;57.698;11.946;2022-12-29T08:25:32;13.07;;;4.30;;
13439;SDS011;6792;57.698;11.946;2022-12-29T08:28:01;12.10;;;4.70;;
13439;SDS011;6792;57.698;11.946;2022-12-29T08:30:30;16.73;;;4.97;;
13439;SDS011;6792;57.698;11.946;2022-12-29T08:32:59;17.50;;;3.93;;
13439;SDS011;6792;57.698;11.946;2022-12-29T08:35:28;12.70;;;3.63;;
13439;SDS011;6792;57.698;11.946;2022-12-29T08:37:57;8.37;;;3.63;;
13439;SDS011;6792;57.698;11.946;2022-12-29T08:40:26;6.07;;;2.93;;
13439;SDS011;6792;57.698;11.946;2022-12-29T08:42:55;13.23;;;3.63;;
13439;SDS011;6792;57.698;11.946;2022-12-29T08:45:25;15.47;;;4.27;;
13439;SDS011;6792;57.698;11.946;2022-12-29T08:47:54;11.07;;;3.33;;
13439;SDS011;6792;57.698;11.946;2022-12-29T08:50:23;14.63;;;3.53;;
13439;SDS011;6792;57.698;11.946;2022-12-29T08:52:52;9.57;;;3.77;;
13439;SDS011;6792;57.698;11.946;2022-12-29T08:55:21;14.80;;;4.07;;
13439;SDS011;6792;57.698;11.946;2022-12-29T08:57:50;14.60;;;3.50;;
13439;SDS011;6792;57.698;11.946;2022-12-29T09:00:19;14.13;;;3.87;;
13439;SDS011;6792;57.698;11.946;2022-12-29T09:02:48;14.20;;;4.23;;
13439;SDS011;6792;57.698;11.946;2022-12-29T09:05:17;15.90;;;3.90;;
13439;SDS011;6792;57.698;11.946;2022-12-29T09:07:46;13.00;;;4.43;;
13439;SDS011;6792;57.698;11.946;2022-12-29T09:10:15;14.37;;;4.87;;
13439;SDS011;6792;57.698;11.946;2022-12-29T09:12:44;15.87;;;4.60;;
13439;SDS011;6792;57.698;11.946;2022-12-29T09:15:13;12.93;;;5.33;;
13439;SDS011;6792;57.698;11.946;2022-12-29T09:17:42;10.13;;;4.30;;
13439;SDS011;6792;57.698;11.946;2022-12-29T09:20:12;20.30;;;5.77;;
13439;SDS011;6792;57.698;11.946;2022-12-29T09:22:41;15.70;;;5.33;;
13439;SDS011;6792;57.698;11.946;2022-12-29T09:25:11;13.87;;;5.23;;
13439;SDS011;6792;57.698;11.946;2022-12-29T09:27:40;13.63;;;5.83;;
13439;SDS011;6792;57.698;11.946;2022-12-29T09:30:11;18.07;;;7.30;;
13439;SDS011;6792;57.698;11.946;2022-12-29T09:32:41;18.33;;;6.77;;
13439;SDS011;6792;57.698;11.946;2022-12-29T09:35:10;18.70;;;6.27;;
13439;SDS011;6792;57.698;11.946;2022-12-29T09:37:39;14.73;;;6.23;;
13439;SDS011;6792;57.698;11.946;2022-12-29T09:40:13;12.27;;;6.17;;
13439;SDS011;6792;57.698;11.946;2022-12-29T09:43:05;10.60;;;6.27;;
13439;SDS011;6792;57.698;11.946;2022-12-29T09:45:43;8.60;;;5.73;;
13439;SDS011;6792;57.698;11.946;2022-12-29T09:48:15;10.97;;;6.20;;
13439;SDS011;6792;57.698;11.946;2022-12-29T09:50:47;7.80;;;4.93;;
13439;SDS011;6792;57.698;11.946;2022-12-29T09:53:20;12.57;;;6.20;;
13439;SDS011;6792;57.698;11.946;2022-12-29T09:55:51;7.87;;;4.73;;
13439;SDS011;6792;57.698;11.946;2022-12-29T09:58:24;6.87;;;3.10;;
13439;SDS011;6792;57.698;11.946;2022-12-29T10:00:58;5.37;;;3.70;;
13439;SDS011;6792;57.698;11.946;2022-12-29T10:03:35;12.83;;;4.40;;
13439;SDS011;6792;57.698;11.946;2022-12-29T10:06:09;9.03;;;4.97;;
13439;SDS011;6792;57.698;11.946;2022-12-29T10:08:37;11.57;;;5.33;;
13439;SDS011;6792;57.698;11.946;2022-12-29T10:11:12;15.83;;;6.40;;
13439;SDS011;6792;57.698;11.946;2022-12-29T10:13:47;13.70;;;5.60;;
13439;SDS011;6792;57.698;11.946;2022-12-29T10:16:20;17.90;;;5.47;;
13439;SDS011;6792;57.698;11.946;2022-12-29T10:18:58;9.20;;;4.60;;
13439;SDS011;6792;57.698;11.946;2022-12-29T10:21:34;9.03;;;4.90;;
13439;SDS011;6792;57.698;11.946;2022-12-29T10:24:09;11.67;;;4.60;;
13439;SDS011;6792;57.698;11.946;2022-12-29T10:26:39;9.60;;;4.53;;
13439;SDS011;6792;57.698;11.946;2022-12-29T10:29:13;9.90;;;4.20;;
13439;SDS011;6792;57.698;11.946;2022-12-29T10:31:46;10.90;;;5.10;;
13439;SDS011;6792;57.698;11.946;2022-12-29T10:34:19;15.97;;;5.00;;
13439;SDS011;6792;57.698;11.946;2022-12-29T10:36:54;11.13;;;4.90;;
13439;SDS011;6792;57.698;11.946;2022-12-29T10:39:28;14.17;;;5.10;;
13439;SDS011;6792;57.698;11.946;2022-12-29T10:42:01;12.33;;;4.30;;
13439;SDS011;6792;57.698;11.946;2022-12-29T10:44:33;17.93;;;4.43;;
13439;SDS011;6792;57.698;11.946;2022-12-29T10:47:04;14.10;;;4.43;;
13439;SDS011;6792;57.698;11.946;2022-12-29T10:49:36;10.70;;;4.20;;
13439;SDS011;6792;57.698;11.946;2022-12-29T10:52:06;17.47;;;4.33;;
13439;SDS011;6792;57.698;11.946;2022-12-29T10:54:39;16.03;;;3.83;;
13439;SDS011;6792;57.698;11.946;2022-12-29T10:57:16;8.93;;;3.80;;
13439;SDS011;6792;57.698;11.946;2022-12-29T10:59:48;15.03;;;3.97;;
13439;SDS011;6792;57.698;11.946;2022-12-29T11:02:23;12.33;;;3.67;;
13439;SDS011;6792;57.698;11.946;2022-12-29T11:05:15;9.03;;;2.63;;
13439;SDS011;6792;57.698;11.946;2022-12-29T11:07:46;13.67;;;3.70;;
13439;SDS011;6792;57.698;11.946;2022-12-29T11:10:18;14.27;;;2.97;;
13439;SDS011;6792;57.698;11.946;2022-12-29T11:12:56;11.47;;;3.17;;
13439;SDS011;6792;57.698;11.946;2022-12-29T11:15:29;10.93;;;2.30;;
13439;SDS011;6792;57.698;11.946;2022-12-29T11:18:07;17.50;;;3.60;;
13439;SDS011;6792;57.698;11.946;2022-12-29T11:20:49;15.40;;;2.87;;
13439;SDS011;6792;57.698;11.946;2022-12-29T11:23:24;15.60;;;3.30;;
13439;SDS011;6792;57.698;11.946;2022-12-29T11:26:07;18.03;;;3.17;;
13439;SDS011;6792;57.698;11.946;2022-12-29T11:28:43;13.87;;;2.50;;
13439;SDS011;6792;57.698;11.946;2022-12-29T11:31:16;14.07;;;2.77;;
13439;SDS011;6792;57.698;11.946;2022-12-29T11:33:46;9.53;;;2.43;;
13439;SDS011;6792;57.698;11.946;2022-12-29T11:36:16;15.47;;;3.20;;
13439;SDS011;6792;57.698;11.946;2022-12-29T11:38:48;18.63;;;2.67;;
13439;SDS011;6792;57.698;11.946;2022-12-29T11:41:22;16.67;;;2.67;;
13439;SDS011;6792;57.698;11.946;2022-12-29T11:43:53;12.07;;;2.87;;
13439;SDS011;6792;57.698;11.946;2022-12-29T11:46:33;15.27;;;2.43;;
13439;SDS011;6792;57.698;11.946;2022-12-29T11:49:04;15.83;;;2.80;;
13439;SDS011;6792;57.698;11.946;2022-12-29T11:51:37;11.33;;;2.23;;
13439;SDS011;6792;57.698;11.946;2022-12-29T11:54:11;16.07;;;2.93;;
13439;SDS011;6792;57.698;11.946;2022-12-29T11:56:42;18.13;;;2.93;;
13439;SDS011;6792;57.698;11.946;2022-12-29T11:59:25;14.50;;;2.40;;
13439;SDS011;6792;57.698;11.946;2022-12-29T12:02:25;15.30;;;2.77;;
13439;SDS011;6792;57.698;11.946;2022-12-29T12:05:08;20.20;;;3.07;;
13439;SDS011;6792;57.698;11.946;2022-12-29T12:07:45;12.43;;;2.87;;
13439;SDS011;6792;57.698;11.946;2022-12-29T12:10:21;21.13;;;2.83;;
13439;SDS011;6792;57.698;11.946;2022-12-29T12:12:58;15.23;;;3.13;;
13439;SDS011;6792;57.698;11.946;2022-12-29T12:15:36;13.63;;;3.20;;
13439;SDS011;6792;57.698;11.946;2022-12-29T12:18:09;17.40;;;2.87;;
13439;SDS011;6792;57.698;11.946;2022-12-29T12:20:45;14.77;;;2.77;;
13439;SDS011;6792;57.698;11.946;2022-12-29T12:23:22;24.13;;;3.23;;
13439;SDS011;6792;57.698;11.946;2022-12-29T12:26:10;19.90;;;3.30;;
13439;SDS011;6792;57.698;11.946;2022-12-29T12:28:44;14.53;;;3.07;;
13439;SDS011;6792;57.698;11.946;2022-12-29T12:31:18;22.53;;;3.17;;
13439;SDS011;6792;57.698;11.946;2022-12-29T12:33:58;19.60;;;3.03;;
13439;SDS011;6792;57.698;11.946;2022-12-29T12:36:46;16.17;;;3.07;;
13439;SDS011;6792;57.698;11.946;2022-12-29T12:39:25;20.60;;;3.03;;
13439;SDS011;6792;57.698;11.946;2022-12-29T12:42:00;18.40;;;2.93;;
13439;SDS011;6792;57.698;11.946;2022-12-29T12:44:38;24.23;;;3.53;;
13439;SDS011;6792;57.698;11.946;2022-12-29T12:50:34;23.93;;;3.20;;
13439;SDS011;6792;57.698;11.946;2022-12-29T12:53:19;26.37;;;3.07;;
13439;SDS011;6792;57.698;11.946;2022-12-29T12:56:06;20.30;;;3.63;;
13439;SDS011;6792;57.698;11.946;2022-12-29T12:58:43;18.63;;;3.27;;
13439;SDS011;6792;57.698;11.946;2022-12-29T13:01:22;20.33;;;3.20;;
13439;SDS011;6792;57.698;11.946;2022-12-29T13:03:59;21.80;;;3.47;;
13439;SDS011;6792;57.698;11.946;2022-12-29T13:06:35;17.03;;;2.67;;
13439;SDS011;6792;57.698;11.946;2022-12-29T13:09:28;20.33;;;3.07;;
13439;SDS011;6792;57.698;11.946;2022-12-29T13:12:09;17.37;;;2.50;;
13439;SDS011;6792;57.698;11.946;2022-12-29T13:14:47;15.27;;;2.70;;
13439;SDS011;6792;57.698;11.946;2022-12-29T13:17:23;21.13;;;3.20;;
13439;SDS011;6792;57.698;11.946;2022-12-29T13:19:55;22.37;;;4.00;;
13439;SDS011;6792;57.698;11.946;2022-12-29T13:22:28;19.70;;;2.70;;
13439;SDS011;6792;57.698;11.946;2022-12-29T13:25:06;28.27;;;3.43;;
13439;SDS011;6792;57.698;11.946;2022-12-29T13:27:50;10.43;;;2.63;;
13439;SDS011;6792;57.698;11.946;2022-12-29T13:30:23;24.30;;;3.50;;
13439;SDS011;6792;57.698;11.946;2022-12-29T13:32:55;17.53;;;3.13;;
13439;SDS011;6792;57.698;11.946;2022-12-29T13:35:41;18.87;;;3.40;;
13439;SDS011;6792;57.698;11.946;2022-12-29T13:38:21;13.27;;;2.90;;
13439;SDS011;6792;57.698;11.946;2022-12-29T13:40:48;13.00;;;2.43;;
13439;SDS011;6792;57.698;11.946;2022-12-29T13:43:19;18.97;;;2.73;;
13439;SDS011;6792;57.698;11.946;2022-12-29T13:45:58;23.90;;;3.30;;
13439;SDS011;6792;57.698;11.946;2022-12-29T13:48:29;20.77;;;2.60;;
13439;SDS011;6792;57.698;11.946;2022-12-29T13:51:06;15.73;;;2.47;;
13439;SDS011;6792;57.698;11.946;2022-12-29T13:53:40;18.40;;;3.13;;
13439;SDS011;6792;57.698;11.946;2022-12-29T13:56:19;18.37;;;2.97;;
13439;SDS011;6792;57.698;11.946;2022-12-29T13:58:52;19.17;;;4.00;;
13439;SDS011;6792;57.698;11.946;2022-12-29T14:01:30;22.40;;;3.33;;
13439;SDS011;6792;57.698;11.946;2022-12-29T14:04:08;26.33;;;3.87;;
13439;SDS011;6792;57.698;11.946;2022-12-29T14:06:37;17.47;;;3.70;;
13439;SDS011;6792;57.698;11.946;2022-12-29T14:09:34;17.23;;;2.80;;
13439;SDS011;6792;57.698;11.946;2022-12-29T14:12:06;17.50;;;2.90;;
13439;SDS011;6792;57.698;11.946;2022-12-29T14:15:03;28.17;;;3.70;;
13439;SDS011;6792;57.698;11.946;2022-12-29T14:17:44;15.87;;;2.70;;
13439;SDS011;6792;57.698;11.946;2022-12-29T14:20:21;16.50;;;2.83;;
13439;SDS011;6792;57.698;11.946;2022-12-29T14:22:58;11.20;;;2.37;;
13439;SDS011;6792;57.698;11.946;2022-12-29T14:28:24;16.87;;;2.37;;
13439;SDS011;6792;57.698;11.946;2022-12-29T14:30:55;21.77;;;3.20;;
13439;SDS011;6792;57.698;11.946;2022-12-29T14:33:28;13.93;;;2.40;;
13439;SDS011;6792;57.698;11.946;2022-12-29T14:36:19;18.13;;;3.20;;
13439;SDS011;6792;57.698;11.946;2022-12-29T14:38:50;17.80;;;3.63;;
13439;SDS011;6792;57.698;11.946;2022-12-29T14:41:30;21.53;;;3.43;;
13439;SDS011;6792;57.698;11.946;2022-12-29T14:44:16;18.87;;;3.40;;
13439;SDS011;6792;57.698;11.946;2022-12-29T14:46:54;16.20;;;3.23;;
13439;SDS011;6792;57.698;11.946;2022-12-29T14:49:26;22.70;;;3.67;;
13439;SDS011;6792;57.698;11.946;2022-12-29T14:52:04;21.17;;;3.63;;
13439;SDS011;6792;57.698;11.946;2022-12-29T14:54:46;21.57;;;3.70;;
13439;SDS011;6792;57.698;11.946;2022-12-29T14:57:29;24.17;;;3.47;;
13439;SDS011;6792;57.698;11.946;2022-12-29T15:00:14;18.10;;;3.10;;
13439;SDS011;6792;57.698;11.946;2022-12-29T15:02:47;17.93;;;2.80;;
13439;SDS011;6792;57.698;11.946;2022-12-29T15:05:26;14.77;;;2.70;;
13439;SDS011;6792;57.698;11.946;2022-12-29T15:08:03;15.83;;;2.73;;
13439;SDS011;6792;57.698;11.946;2022-12-29T15:10:36;23.27;;;3.47;;
13439;SDS011;6792;57.698;11.946;2022-12-29T15:13:13;20.27;;;2.73;;
13439;SDS011;6792;57.698;11.946;2022-12-29T15:15:44;11.20;;;2.23;;
13439;SDS011;6792;57.698;11.946;2022-12-29T15:18:14;9.43;;;2.30;;
13439;SDS011;6792;57.698;11.946;2022-12-29T15:20:54;16.37;;;2.40;;
13439;SDS011;6792;57.698;11.946;2022-12-29T15:23:25;16.17;;;2.43;;
13439;SDS011;6792;57.698;11.946;2022-12-29T15:25:56;12.30;;;2.17;;
13439;SDS011;6792;57.698;11.946;2022-12-29T15:28:27;10.57;;;2.23;;
13439;SDS011;6792;57.698;11.946;2022-12-29T15:31:02;12.40;;;1.83;;